Time;durP1;ratioP1;P1;durP2;ratioP2;P2;SDS_P1;SDS_P2;PMS_P1;PMS_P2;Temp;Humidity;BMP_temperature;BMP_pressure;BME280_temperature;BME280_humidity;BME280_pressure;Samples;Min_cycle;Max_cycle;Signal;HPM_P1;HPM_P2
2021/08/03 00:00:05;;;;;;;3.92;1.05;;;15.40;99.90;;;;;;5033617;28;20144;-81
2021/08/03 00:02:33;;;;;;;2.10;0.93;;;15.30;99.90;;;;;;5033541;28;20471;-80
2021/08/03 00:05:00;;;;;;;2.67;1.00;;;15.30;99.90;;;;;;5033553;28;20412;-80
2021/08/03 00:07:29;;;;;;;4.22;1.10;;;15.20;99.90;;;;;;5033558;28;20045;-81
2021/08/03 00:09:57;;;;;;;2.90;1.13;;;15.30;99.90;;;;;;5033340;28;20042;-80
2021/08/03 00:12:25;;;;;;;2.92;1.20;;;15.30;99.90;;;;;;5033517;28;20140;-80
2021/08/03 00:14:55;;;;;;;2.70;0.93;;;15.30;99.90;;;;;;5033321;28;20053;-79
2021/08/03 00:17:25;;;;;;;2.53;1.00;;;15.20;99.90;;;;;;5033403;28;20049;-80
2021/08/03 00:19:54;;;;;;;2.85;1.13;;;15.20;99.90;;;;;;5033273;28;20132;-80
2021/08/03 00:22:23;;;;;;;1.92;0.90;;;15.20;99.90;;;;;;5033508;28;20049;-79
2021/08/03 00:24:53;;;;;;;3.00;1.00;;;15.10;99.90;;;;;;5033021;28;20053;-80
2021/08/03 00:27:21;;;;;;;3.10;1.10;;;15.20;99.90;;;;;;5033298;28;20463;-80
2021/08/03 00:29:48;;;;;;;3.53;1.20;;;15.20;99.90;;;;;;5033590;28;20148;-80
2021/08/03 00:32:15;;;;;;;3.25;1.10;;;15.20;99.90;;;;;;5033017;28;20307;-79
2021/08/03 00:34:44;;;;;;;2.55;1.10;;;15.20;99.90;;;;;;5033144;28;20140;-80
2021/08/03 00:37:11;;;;;;;2.20;0.98;;;15.20;99.90;;;;;;5033296;28;20128;-80
2021/08/03 00:39:39;;;;;;;2.58;0.80;;;15.10;99.90;;;;;;5033200;28;20128;-77
2021/08/03 00:42:08;;;;;;;2.63;0.80;;;15.10;99.90;;;;;;5033089;28;20056;-80
2021/08/03 00:44:43;;;;;;;2.15;1.10;;;15.10;99.90;;;;;;5053858;28;20047;-80
2021/08/03 00:47:11;;;;;;;2.63;0.90;;;15.20;99.90;;;;;;5055384;28;20051;-80
2021/08/03 00:49:38;;;;;;;2.90;0.90;;;15.20;99.90;;;;;;5052517;28;20456;-80
2021/08/03 00:52:10;;;;;;;2.47;1.00;;;15.30;99.90;;;;;;5052676;28;20045;-80
2021/08/03 00:54:37;;;;;;;2.30;0.77;;;15.20;99.90;;;;;;5052947;28;20045;-78
2021/08/03 00:57:07;;;;;;;1.80;0.88;;;15.00;99.90;;;;;;5060246;28;20053;-79
2021/08/03 00:59:35;;;;;;;2.50;1.00;;;15.00;99.90;;;;;;5058032;28;20144;-80
2021/08/03 01:02:03;;;;;;;3.42;1.00;;;14.90;99.90;;;;;;5052908;28;20132;-80
2021/08/03 01:04:30;;;;;;;3.17;1.00;;;14.90;99.90;;;;;;5052853;28;20137;-80
2021/08/03 01:07:08;;;;;;;2.58;0.80;;;14.80;99.90;;;;;;5052730;28;20140;-80
2021/08/03 01:09:46;;;;;;;1.85;0.80;;;14.80;99.90;;;;;;5052711;28;20143;-80
2021/08/03 01:12:27;;;;;;;3.35;1.00;;;14.80;99.90;;;;;;5052686;28;20083;-81
2021/08/03 01:15:02;;;;;;;3.58;0.98;;;14.90;99.90;;;;;;5052657;28;20049;-78
2021/08/03 01:17:37;;;;;;;3.08;1.10;;;14.90;99.90;;;;;;5052756;28;20133;-81
2021/08/03 01:20:10;;;;;;;3.55;1.10;;;14.90;99.90;;;;;;5052681;28;20132;-79
2021/08/03 01:23:07;;;;;;;5.18;1.10;;;14.90;99.90;;;;;;5052859;28;20136;-80
2021/08/03 01:25:52;;;;;;;2.22;1.00;;;14.90;99.90;;;;;;5052943;28;20068;-80
2021/08/03 01:28:23;;;;;;;3.03;1.02;;;14.90;99.90;;;;;;5055794;28;20099;-79
2021/08/03 01:30:54;;;;;;;2.10;1.02;;;14.90;99.90;;;;;;5056352;28;20068;-80
2021/08/03 01:33:26;;;;;;;2.45;0.90;;;14.80;99.90;;;;;;5054745;28;20471;-80
2021/08/03 01:35:56;;;;;;;3.53;0.80;;;14.80;99.90;;;;;;5052241;28;20143;-80
2021/08/03 01:38:27;;;;;;;3.65;1.08;;;14.70;99.90;;;;;;5052470;28;20048;-80
2021/08/03 01:40:59;;;;;;;2.53;1.00;;;14.70;99.90;;;;;;5052394;28;20136;-81
2021/08/03 01:43:28;;;;;;;3.25;0.90;;;14.60;99.90;;;;;;5052336;28;20057;-80
2021/08/03 01:45:56;;;;;;;3.20;1.02;;;14.60;99.90;;;;;;5052425;28;20140;-80
2021/08/03 01:48:25;;;;;;;1.98;0.90;;;14.70;99.90;;;;;;5052358;28;20041;-79
2021/08/03 01:50:53;;;;;;;2.95;1.10;;;14.60;99.90;;;;;;5052345;28;20132;-80
2021/08/03 01:53:24;;;;;;;3.03;0.95;;;14.50;99.90;;;;;;5052239;28;20041;-80
2021/08/03 01:55:54;;;;;;;4.35;1.35;;;14.50;99.90;;;;;;5052181;28;20059;-79
2021/08/03 01:58:23;;;;;;;3.70;1.10;;;14.30;99.90;;;;;;5052440;28;20407;-80
2021/08/03 02:00:53;;;;;;;2.95;1.02;;;14.30;99.90;;;;;;5054298;28;20482;-80
2021/08/03 02:03:22;;;;;;;2.35;1.10;;;14.20;99.90;;;;;;5055727;28;20485;-80
2021/08/03 02:05:52;;;;;;;2.95;1.10;;;14.30;99.90;;;;;;5055661;28;20049;-77
2021/08/03 02:08:21;;;;;;;2.72;1.30;;;14.30;99.90;;;;;;5055666;28;20152;-79
2021/08/03 02:10:49;;;;;;;3.03;1.30;;;14.30;99.90;;;;;;5055525;28;20087;-81
2021/08/03 02:13:17;;;;;;;2.25;1.05;;;14.30;99.90;;;;;;5055574;28;20048;-81
2021/08/03 02:15:45;;;;;;;3.25;1.10;;;14.40;99.90;;;;;;5055693;28;20148;-79
2021/08/03 02:18:16;;;;;;;2.15;0.90;;;14.40;99.90;;;;;;5055559;28;20091;-80
2021/08/03 02:20:44;;;;;;;2.40;1.20;;;14.40;99.90;;;;;;5055332;28;20049;-80
2021/08/03 02:23:12;;;;;;;2.40;1.10;;;14.50;99.90;;;;;;5055545;28;20417;-80
2021/08/03 02:25:40;;;;;;;3.35;1.00;;;14.60;99.90;;;;;;5055387;28;20055;-80
2021/08/03 02:28:08;;;;;;;2.47;1.20;;;14.60;99.90;;;;;;5055366;28;20047;-79
2021/08/03 02:30:36;;;;;;;3.15;1.15;;;14.60;99.90;;;;;;5055255;28;20077;-80
2021/08/03 02:33:09;;;;;;;2.50;1.10;;;14.50;99.90;;;;;;5055216;28;20041;-80
2021/08/03 02:35:45;;;;;;;2.53;1.10;;;14.40;99.90;;;;;;5055042;28;20240;-80
2021/08/03 02:38:15;;;;;;;2.83;1.05;;;14.30;99.90;;;;;;5055249;28;20052;-81
2021/08/03 02:40:43;;;;;;;2.97;1.00;;;14.30;99.90;;;;;;5055096;28;20490;-80
2021/08/03 02:43:15;;;;;;;2.67;0.85;;;14.30;99.90;;;;;;5061429;28;20466;-78
2021/08/03 02:45:42;;;;;;;3.38;1.27;;;14.20;99.90;;;;;;5066394;28;20108;-80
2021/08/03 02:48:14;;;;;;;5.05;1.15;;;14.20;99.90;;;;;;5054848;28;20459;-80
2021/08/03 02:50:45;;;;;;;2.65;1.15;;;14.30;99.90;;;;;;5054726;28;20048;-79
2021/08/03 02:53:19;;;;;;;2.50;1.08;;;14.30;99.90;;;;;;5054956;28;20055;-79
2021/08/03 02:55:51;;;;;;;3.15;1.20;;;14.30;99.90;;;;;;5054878;28;20084;-80
2021/08/03 02:58:26;;;;;;;3.72;1.25;;;14.30;99.90;;;;;;5054706;28;20134;-80
2021/08/03 03:00:53;;;;;;;4.47;1.10;;;14.30;99.90;;;;;;5054884;28;20087;-80
2021/08/03 03:03:24;;;;;;;3.42;1.27;;;14.30;99.90;;;;;;5053675;28;20422;-80
2021/08/03 03:06:00;;;;;;;2.08;0.90;;;14.20;99.90;;;;;;5043275;28;20045;-80
2021/08/03 03:08:30;;;;;;;2.45;1.23;;;14.30;99.90;;;;;;5035091;28;20049;-80
2021/08/03 03:11:02;;;;;;;3.20;1.20;;;14.30;99.90;;;;;;5032292;28;20576;-80
2021/08/03 03:13:35;;;;;;;3.25;1.17;;;14.30;99.90;;;;;;5032409;28;20056;-80
2021/08/03 03:16:03;;;;;;;2.53;0.90;;;14.40;99.90;;;;;;5032317;28;20049;-80
2021/08/03 03:18:31;;;;;;;3.90;1.00;;;14.40;99.90;;;;;;5032807;28;20049;-80
2021/08/03 03:21:01;;;;;;;3.35;1.33;;;14.40;99.90;;;;;;5032609;28;20051;-80
2021/08/03 03:23:33;;;;;;;2.45;1.17;;;14.30;99.90;;;;;;5032125;28;20481;-80
2021/08/03 03:26:02;;;;;;;2.80;1.00;;;14.30;99.90;;;;;;5032191;28;20052;-80
2021/08/03 03:28:33;;;;;;;3.95;1.00;;;14.20;99.90;;;;;;5032603;28;20137;-80
2021/08/03 03:31:01;;;;;;;3.08;1.15;;;14.10;99.90;;;;;;5032554;28;20467;-78
2021/08/03 03:33:31;;;;;;;2.97;1.00;;;13.90;99.90;;;;;;5032256;28;20132;-79
2021/08/03 03:36:02;;;;;;;1.98;1.00;;;13.90;99.90;;;;;;5031993;28;20145;-79
2021/08/03 03:38:31;;;;;;;3.05;1.08;;;13.80;99.90;;;;;;5032039;28;20084;-80
2021/08/03 03:40:59;;;;;;;2.15;1.10;;;13.80;99.90;;;;;;5031953;28;20071;-79
2021/08/03 03:43:30;;;;;;;2.83;1.10;;;13.80;99.90;;;;;;5036634;28;20082;-79
2021/08/03 03:46:07;;;;;;;4.45;1.10;;;13.80;99.90;;;;;;5062984;28;20402;-79
2021/08/03 03:48:40;;;;;;;2.88;0.90;;;13.80;99.90;;;;;;5052265;28;20049;-80
2021/08/03 03:51:15;;;;;;;2.45;1.10;;;13.80;99.90;;;;;;5051904;28;20501;-80
2021/08/03 03:53:47;;;;;;;2.75;1.00;;;13.90;99.90;;;;;;5051960;28;20483;-79
2021/08/03 03:56:17;;;;;;;2.53;1.08;;;13.90;99.90;;;;;;5051383;28;20135;-80
2021/08/03 03:58:52;;;;;;;1.98;1.00;;;13.90;99.90;;;;;;5051737;28;20482;-79
2021/08/03 04:01:25;;;;;;;2.78;1.00;;;14.00;99.90;;;;;;5052277;28;20131;-80
2021/08/03 04:03:56;;;;;;;3.20;1.00;;;14.00;99.90;;;;;;5054258;28;20048;-78
2021/08/03 04:06:24;;;;;;;3.28;1.20;;;14.10;99.90;;;;;;5053916;28;20087;-79
2021/08/03 04:08:52;;;;;;;5.95;1.10;;;14.10;99.90;;;;;;5053782;28;20451;-80
2021/08/03 04:11:19;;;;;;;3.10;1.10;;;14.10;99.90;;;;;;5053464;28;20127;-79
2021/08/03 04:13:49;;;;;;;3.08;1.00;;;14.10;99.90;;;;;;5054068;28;20055;-80
2021/08/03 04:16:16;;;;;;;3.75;1.00;;;14.20;99.90;;;;;;5054085;28;20132;-78
2021/08/03 04:18:43;;;;;;;3.88;1.02;;;14.20;99.90;;;;;;5053592;28;20566;-79
2021/08/03 04:21:11;;;;;;;7.68;1.33;;;14.20;99.90;;;;;;5053617;28;20044;-75
2021/08/03 04:23:39;;;;;;;3.60;1.27;;;14.10;99.90;;;;;;5053800;28;20132;-75
2021/08/03 04:26:07;;;;;;;3.47;1.10;;;14.10;99.90;;;;;;5053466;28;20076;-76
2021/08/03 04:28:34;;;;;;;2.95;1.13;;;14.00;99.90;;;;;;5053808;28;20391;-77
2021/08/03 04:31:01;;;;;;;3.00;1.00;;;13.90;99.90;;;;;;5053525;28;20136;-76
2021/08/03 04:33:28;;;;;;;3.05;0.98;;;13.90;99.90;;;;;;5053732;28;20136;-77
2021/08/03 04:35:55;;;;;;;3.40;1.10;;;13.90;99.90;;;;;;5053190;28;20059;-78
2021/08/03 04:38:23;;;;;;;4.32;1.00;;;13.90;99.90;;;;;;5053068;28;20044;-77
2021/08/03 04:40:51;;;;;;;2.80;1.20;;;13.90;99.90;;;;;;5053437;28;20044;-78
2021/08/03 04:43:18;;;;;;;2.50;1.13;;;13.90;99.90;;;;;;5054033;28;20045;-77
2021/08/03 04:45:45;;;;;;;3.47;1.25;;;13.90;99.90;;;;;;5053648;28;20045;-77
2021/08/03 04:48:14;;;;;;;3.20;1.40;;;14.00;99.90;;;;;;5053322;28;20049;-75
2021/08/03 04:50:41;;;;;;;2.67;1.20;;;14.00;99.90;;;;;;5053257;28;20056;-75
2021/08/03 04:53:08;;;;;;;2.03;1.08;;;14.00;99.90;;;;;;5052881;28;20080;-77
2021/08/03 04:55:35;;;;;;;3.38;1.23;;;14.10;99.90;;;;;;5053276;28;20040;-78
2021/08/03 04:58:04;;;;;;;3.45;1.23;;;14.10;99.90;;;;;;5053127;28;20055;-79
2021/08/03 05:00:31;;;;;;;4.00;1.10;;;14.20;99.90;;;;;;5053986;28;20139;-79
2021/08/03 05:02:58;;;;;;;2.97;1.30;;;14.20;99.90;;;;;;5053158;28;20136;-77
2021/08/03 05:05:25;;;;;;;2.75;1.00;;;14.20;99.90;;;;;;5052968;28;20132;-77
2021/08/03 05:07:58;;;;;;;2.80;1.25;;;14.20;99.90;;;;;;5052772;28;20057;-79
2021/08/03 05:10:26;;;;;;;3.33;1.20;;;14.30;99.90;;;;;;5053189;28;20162;-77
2021/08/03 05:12:53;;;;;;;3.28;1.30;;;14.30;99.90;;;;;;5053197;28;20040;-78
2021/08/03 05:15:22;;;;;;;3.33;1.13;;;14.30;99.90;;;;;;5053021;28;20148;-76
2021/08/03 05:17:50;;;;;;;1.98;0.95;;;14.40;99.90;;;;;;5052793;28;20123;-79
2021/08/03 05:20:18;;;;;;;3.45;1.30;;;14.40;99.90;;;;;;5052683;28;20045;-78
2021/08/03 05:22:46;;;;;;;3.55;1.20;;;14.50;99.90;;;;;;5053182;28;20406;-78
2021/08/03 05:25:14;;;;;;;3.45;1.50;;;14.40;99.90;;;;;;5052693;28;20483;-78
2021/08/03 05:27:41;;;;;;;3.22;1.30;;;14.40;99.90;;;;;;5052670;28;20155;-77
2021/08/03 05:30:09;;;;;;;2.70;1.10;;;14.40;99.90;;;;;;5052668;28;20128;-77
2021/08/03 05:32:38;;;;;;;3.70;1.20;;;14.30;99.90;;;;;;5052759;28;20085;-79
2021/08/03 05:35:07;;;;;;;2.58;1.20;;;14.30;99.90;;;;;;5053554;28;20053;-77
2021/08/03 05:37:34;;;;;;;2.72;1.13;;;14.30;99.90;;;;;;5056591;28;20466;-78
2021/08/03 05:40:05;;;;;;;2.80;1.20;;;14.30;99.90;;;;;;5058630;28;20076;-77
2021/08/03 05:42:32;;;;;;;2.88;1.20;;;14.30;99.90;;;;;;5056737;28;20051;-78
2021/08/03 05:44:58;;;;;;;2.70;1.10;;;14.40;99.90;;;;;;5056353;28;20501;-79
2021/08/03 05:47:25;;;;;;;3.40;1.30;;;14.40;99.90;;;;;;5056490;28;20137;-78
2021/08/03 05:49:54;;;;;;;5.05;1.50;;;14.50;99.90;;;;;;5056067;28;20051;-79
2021/08/03 05:52:21;;;;;;;3.35;1.40;;;14.50;99.90;;;;;;5056323;28;20139;-77
2021/08/03 05:54:48;;;;;;;4.15;1.58;;;14.60;99.90;;;;;;5056305;28;20045;-76
2021/08/03 05:57:15;;;;;;;5.20;1.60;;;14.60;99.90;;;;;;5064545;28;20108;-79
2021/08/03 05:59:42;;;;;;;3.85;1.38;;;14.60;99.90;;;;;;5064844;28;20132;-78
2021/08/03 06:02:09;;;;;;;3.83;1.40;;;14.60;99.90;;;;;;5058254;28;20108;-78
2021/08/03 06:04:36;;;;;;;2.90;1.20;;;14.60;99.90;;;;;;5063181;28;20132;-79
2021/08/03 06:07:06;;;;;;;3.95;1.40;;;14.70;99.90;;;;;;5056252;28;20132;-77
2021/08/03 06:09:37;;;;;;;2.47;1.17;;;14.70;99.90;;;;;;5057287;28;20052;-78
2021/08/03 06:12:06;;;;;;;2.72;1.25;;;14.70;99.90;;;;;;5058413;28;20102;-77
2021/08/03 06:14:38;;;;;;;3.05;1.25;;;14.80;99.90;;;;;;5058839;28;20456;-78
2021/08/03 06:17:08;;;;;;;2.40;1.30;;;14.80;99.90;;;;;;5055720;28;20140;-78
2021/08/03 06:19:42;;;;;;;3.63;1.42;;;14.90;99.90;;;;;;5055920;28;20175;-77
2021/08/03 06:22:11;;;;;;;;;;;15.00;99.90;;;;;;5057048;28;20045;-78
2021/08/03 06:24:39;;;;;;;3.08;1.35;;;15.00;99.90;;;;;;5056094;28;20007;-78
2021/08/03 06:27:08;;;;;;;4.60;1.67;;;15.10;99.90;;;;;;5056035;28;20148;-78
2021/08/03 06:29:38;;;;;;;4.57;1.50;;;15.20;99.90;;;;;;5055672;28;20454;-78
2021/08/03 06:32:07;;;;;;;3.60;1.30;;;15.20;99.90;;;;;;5055426;28;20053;-79
2021/08/03 06:34:36;;;;;;;3.50;1.60;;;15.20;99.90;;;;;;5055439;28;20055;-77
2021/08/03 06:37:04;;;;;;;4.47;1.65;;;15.30;99.90;;;;;;5055410;28;20080;-78
2021/08/03 06:39:32;;;;;;;3.08;1.40;;;15.40;99.90;;;;;;5055766;28;20045;-79
2021/08/03 06:42:08;;;;;;;4.93;1.48;;;15.40;99.90;;;;;;5055749;28;20045;-78
2021/08/03 06:44:44;;;;;;;2.90;1.55;;;15.50;99.90;;;;;;5055471;28;20079;-77
2021/08/03 06:47:13;;;;;;;3.05;1.48;;;15.60;99.90;;;;;;5054743;28;20060;-78
2021/08/03 06:49:44;;;;;;;3.95;1.50;;;15.60;99.90;;;;;;5054850;28;20482;-77
2021/08/03 06:52:13;;;;;;;3.35;1.40;;;15.70;99.90;;;;;;5055275;28;20067;-79
2021/08/03 06:54:49;;;;;;;3.20;1.40;;;15.70;99.90;;;;;;5055184;28;20056;-79
2021/08/03 06:57:18;;;;;;;3.95;1.70;;;15.90;99.90;;;;;;5055148;28;20132;-79
2021/08/03 06:59:50;;;;;;;3.92;1.45;;;15.90;99.90;;;;;;5055058;28;20055;-79
2021/08/03 07:02:28;;;;;;;3.80;1.60;;;16.00;99.90;;;;;;5055211;28;20084;-78
2021/08/03 07:05:00;;;;;;;4.10;1.83;;;16.10;99.90;;;;;;5054921;28;20045;-78
2021/08/03 07:07:28;;;;;;;3.08;1.50;;;16.20;99.90;;;;;;5055492;28;20061;-80
2021/08/03 07:09:56;;;;;;;3.05;1.45;;;16.20;99.90;;;;;;5054796;28;20045;-79
2021/08/03 07:12:24;;;;;;;3.03;1.27;;;16.20;99.90;;;;;;5054672;28;20055;-78
2021/08/03 07:14:51;;;;;;;3.58;1.60;;;16.20;99.90;;;;;;5055045;28;20132;-78
2021/08/03 07:17:18;;;;;;;3.50;1.73;;;16.30;99.90;;;;;;5055877;28;20080;-76
2021/08/03 07:19:46;;;;;;;3.67;1.48;;;16.30;99.90;;;;;;5056648;28;20045;-78
2021/08/03 07:22:16;;;;;;;3.67;1.75;;;16.40;99.90;;;;;;5054622;28;20045;-77
2021/08/03 07:24:45;;;;;;;3.63;1.60;;;16.40;99.90;;;;;;5054536;28;20055;-76
2021/08/03 07:27:14;;;;;;;4.13;1.80;;;16.50;99.90;;;;;;5054305;28;20052;-78
2021/08/03 07:29:41;;;;;;;2.90;1.60;;;16.50;99.90;;;;;;5054467;28;20045;-79
2021/08/03 07:32:10;;;;;;;4.78;1.67;;;16.60;99.90;;;;;;5054473;28;20132;-77
2021/08/03 07:34:37;;;;;;;4.25;1.70;;;16.70;99.90;;;;;;5053984;28;20071;-79
2021/08/03 07:37:05;;;;;;;3.83;1.65;;;16.70;99.90;;;;;;5054213;28;20048;-79
2021/08/03 07:39:32;;;;;;;4.22;1.67;;;16.80;99.90;;;;;;5054197;28;20422;-78
2021/08/03 07:41:59;;;;;;;4.45;1.67;;;16.90;99.90;;;;;;5054635;28;20128;-77
2021/08/03 07:44:28;;;;;;;3.72;1.50;;;16.90;99.90;;;;;;5063304;28;20108;-78
2021/08/03 07:46:55;;;;;;;3.13;1.50;;;17.00;99.90;;;;;;5064416;28;20104;-78
2021/08/03 07:49:22;;;;;;;2.67;1.30;;;17.10;99.90;;;;;;5055838;28;20166;-78
2021/08/03 07:51:50;;;;;;;4.05;1.40;;;17.20;99.90;;;;;;5059305;28;20124;-77
2021/08/03 07:54:18;;;;;;;5.15;1.67;;;17.30;99.90;;;;;;5062617;28;20056;-77
2021/08/03 07:56:45;;;;;;;3.13;1.50;;;17.40;99.90;;;;;;5062651;28;20108;-78
2021/08/03 07:59:12;;;;;;;4.00;1.40;;;17.50;99.90;;;;;;5062202;28;20144;-77
2021/08/03 08:01:40;;;;;;;2.78;1.42;;;17.60;99.90;;;;;;5057266;28;20140;-77
2021/08/03 08:04:07;;;;;;;3.10;1.50;;;17.70;99.90;;;;;;5050131;28;20477;-78
2021/08/03 08:06:34;;;;;;;3.25;1.20;;;17.80;99.90;;;;;;5051613;28;20049;-79
2021/08/03 08:09:01;;;;;;;2.83;1.30;;;17.90;99.90;;;;;;5050713;28;20486;-76
2021/08/03 08:11:28;;;;;;;4.05;1.60;;;18.00;99.90;;;;;;5050460;28;20041;-78
2021/08/03 08:13:55;;;;;;;5.30;1.45;;;18.10;99.90;;;;;;5049337;28;20056;-75
2021/08/03 08:16:22;;;;;;;4.20;1.20;;;18.20;99.90;;;;;;5050802;28;20123;-76
2021/08/03 08:18:51;;;;;;;2.83;1.40;;;18.20;99.90;;;;;;5050812;28;20136;-77
2021/08/03 08:21:18;;;;;;;3.08;1.35;;;18.30;99.90;;;;;;5050812;28;20087;-75
2021/08/03 08:23:45;;;;;;;3.45;1.50;;;18.40;99.90;;;;;;5050750;28;20049;-78
2021/08/03 08:26:12;;;;;;;4.00;1.30;;;18.50;99.90;;;;;;5051244;28;20055;-79
2021/08/03 08:28:39;;;;;;;3.50;1.50;;;18.50;99.90;;;;;;5050361;28;20049;-76
2021/08/03 08:31:06;;;;;;;3.13;1.30;;;18.50;99.90;;;;;;5049819;28;20052;-77
2021/08/03 08:33:33;;;;;;;3.42;1.30;;;18.60;99.90;;;;;;5050036;28;20047;-77
2021/08/03 08:36:02;;;;;;;3.90;1.50;;;18.70;99.90;;;;;;5050422;28;20059;-80
2021/08/03 08:38:29;;;;;;;3.65;1.30;;;18.70;99.90;;;;;;5050554;28;20080;-79
2021/08/03 08:40:56;;;;;;;2.97;1.25;;;18.70;99.90;;;;;;5049216;28;20053;-78
2021/08/03 08:43:24;;;;;;;2.80;1.27;;;18.70;99.90;;;;;;5047947;28;20040;-80
2021/08/03 08:45:55;;;;;;;2.92;1.40;;;18.70;99.90;;;;;;5049511;28;20110;-81
2021/08/03 08:48:24;;;;;;;3.67;1.25;;;18.80;99.90;;;;;;5048631;28;20053;-80
2021/08/03 08:50:54;;;;;;;3.03;1.30;;;18.80;99.90;;;;;;5049117;28;20080;-79
2021/08/03 08:53:27;;;;;;;3.20;1.13;;;18.80;99.90;;;;;;5048364;28;20052;-80
2021/08/03 08:55:54;;;;;;;3.10;1.20;;;18.80;99.90;;;;;;5048573;28;20128;-80
2021/08/03 08:58:21;;;;;;;3.28;1.50;;;18.90;99.90;;;;;;5048266;28;20064;-79
2021/08/03 09:00:49;;;;;;;4.40;1.45;;;18.90;99.90;;;;;;5048561;28;20080;-78
2021/08/03 09:03:16;;;;;;;2.55;1.30;;;18.90;99.90;;;;;;5047725;28;20131;-80
2021/08/03 09:05:43;;;;;;;3.10;1.40;;;19.00;99.90;;;;;;5047547;28;20081;-80
2021/08/03 09:08:12;;;;;;;2.72;1.40;;;19.00;99.90;;;;;;5048543;28;20055;-80
2021/08/03 09:10:44;;;;;;;3.15;1.42;;;19.10;99.90;;;;;;5051582;28;20461;-77
2021/08/03 09:13:15;;;;;;;5.88;1.50;;;19.10;99.90;;;;;;5052471;28;20049;-80
2021/08/03 09:15:46;;;;;;;3.55;1.50;;;19.10;99.90;;;;;;5052325;28;20475;-80
2021/08/03 09:18:23;;;;;;;3.22;1.50;;;19.10;99.90;;;;;;5052787;28;20095;-80
2021/08/03 09:20:50;;;;;;;3.10;1.30;;;19.20;99.90;;;;;;5053307;28;20045;-81
2021/08/03 09:23:17;;;;;;;4.05;1.55;;;19.20;99.30;;;;;;5052638;28;20586;-79
2021/08/03 09:25:58;;;;;;;3.28;1.20;;;19.20;98.60;;;;;;5052327;28;20684;-80
2021/08/03 09:28:26;;;;;;;3.92;1.30;;;19.10;98.30;;;;;;5052814;28;20503;-81
2021/08/03 09:30:54;;;;;;;3.30;1.40;;;19.10;98.00;;;;;;5052743;28;20084;-77
2021/08/03 09:33:26;;;;;;;2.92;1.30;;;19.00;97.80;;;;;;5052134;28;20370;-79
2021/08/03 09:35:55;;;;;;;4.03;1.20;;;19.10;98.20;;;;;;5053336;28;20057;-80
2021/08/03 09:38:23;;;;;;;3.05;1.25;;;19.00;98.60;;;;;;5053039;28;20410;-80
2021/08/03 09:40:52;;;;;;;3.30;1.35;;;19.00;98.90;;;;;;5052928;28;20052;-80
2021/08/03 09:43:28;;;;;;;4.20;1.15;;;19.10;98.80;;;;;;5053010;28;20048;-78
2021/08/03 09:46:01;;;;;;;3.47;1.50;;;19.00;99.00;;;;;;5052674;28;20077;-80
2021/08/03 09:48:30;;;;;;;4.35;1.40;;;19.00;98.80;;;;;;5055746;28;20081;-79
2021/08/03 09:51:05;;;;;;;2.88;1.40;;;19.00;98.30;;;;;;5053402;28;20099;-78
2021/08/03 09:53:40;;;;;;;;;;;19.00;98.30;;;;;;5053405;28;20102;-79
2021/08/03 09:56:08;;;;;;;2.90;1.40;;;18.90;98.40;;;;;;5053241;28;20007;-79
2021/08/03 09:58:53;;;;;;;3.25;1.40;;;19.00;98.60;;;;;;5052998;28;20049;-81
2021/08/03 10:01:32;;;;;;;5.00;1.45;;;18.90;98.40;;;;;;5054251;28;20060;-76
2021/08/03 10:04:03;;;;;;;3.10;1.33;;;18.90;98.30;;;;;;5056775;28;20131;-76
2021/08/03 10:06:31;;;;;;;3.10;1.27;;;18.90;98.70;;;;;;5054355;28;20506;-77
2021/08/03 10:08:59;;;;;;;3.25;1.30;;;18.80;99.00;;;;;;5052226;28;20049;-78
2021/08/03 10:11:27;;;;;;;3.30;1.52;;;18.80;99.30;;;;;;5051238;28;20477;-78
2021/08/03 10:13:57;;;;;;;3.63;1.38;;;18.70;99.60;;;;;;5052873;28;20487;-78
2021/08/03 10:16:25;;;;;;;4.07;1.60;;;18.70;99.80;;;;;;5053666;28;20076;-80
2021/08/03 10:18:55;;;;;;;3.33;1.58;;;18.70;99.90;;;;;;5053150;28;20052;-77
2021/08/03 10:21:30;;;;;;;4.35;1.63;;;18.70;99.90;;;;;;5050958;28;20509;-79
2021/08/03 10:24:03;;;;;;;5.78;1.50;;;18.60;99.90;;;;;;5051619;28;20080;-78
2021/08/03 10:26:30;;;;;;;4.30;1.50;;;18.50;99.90;;;;;;5051508;28;20132;-78
2021/08/03 10:29:24;;;;;;;2.63;1.27;;;18.50;99.90;;;;;;5052590;28;20060;-76
2021/08/03 10:31:53;;;;;;;3.03;1.33;;;18.50;99.90;;;;;;5051606;28;20128;-76
2021/08/03 10:34:58;;;;;;;2.83;1.23;;;18.40;99.90;;;;;;5051536;28;20060;-77
2021/08/03 10:37:27;;;;;;;3.65;1.70;;;18.50;99.90;;;;;;5051250;28;20052;-79
2021/08/03 10:39:56;;;;;;;4.13;1.40;;;18.50;99.90;;;;;;5051166;28;20076;-80
2021/08/03 10:42:25;;;;;;;4.25;1.50;;;18.60;99.90;;;;;;5051173;28;20517;-80
2021/08/03 10:44:57;;;;;;;3.13;1.50;;;18.70;99.90;;;;;;5052971;28;20045;-79
2021/08/03 10:47:47;;;;;;;4.82;1.50;;;18.90;99.90;;;;;;5052369;28;20059;-78
2021/08/03 10:50:29;;;;;;;2.92;1.40;;;19.00;99.90;;;;;;5053861;28;20049;-78
2021/08/03 10:53:02;;;;;;;3.17;1.60;;;19.10;99.90;;;;;;5051452;28;20045;-78
2021/08/03 10:55:42;;;;;;;3.20;1.48;;;19.20;99.80;;;;;;5051910;28;20041;-79
2021/08/03 10:58:23;;;;;;;4.45;1.20;;;19.30;99.30;;;;;;5052241;28;20143;-77
2021/08/03 11:00:54;;;;;;;4.63;1.27;;;19.20;98.80;;;;;;5051399;28;20045;-80
2021/08/03 11:03:48;;;;;;;3.03;1.30;;;19.30;99.00;;;;;;5051544;28;20103;-78
2021/08/03 11:06:45;;;;;;;3.03;1.25;;;19.30;98.10;;;;;;5016494;28;20045;-79
2021/08/03 11:09:35;;;;;;;2.78;1.27;;;19.30;98.30;;;;;;4989825;28;20798;-77
2021/08/03 11:12:37;;;;;;;3.40;1.30;;;19.30;98.40;;;;;;5047117;28;20052;-78
2021/08/03 11:15:40;;;;;;;2.00;1.02;;;19.30;98.60;;;;;;4989218;28;20743;-79
2021/08/03 11:18:12;;;;;;;2.83;1.17;;;19.30;97.00;;;;;;5037380;28;20051;-79
2021/08/03 11:21:14;;;;;;;2.30;0.90;;;19.30;97.20;;;;;;5050852;28;20411;-80
2021/08/03 11:24:14;;;;;;;3.65;1.27;;;19.30;97.20;;;;;;5051780;28;20041;-79
2021/08/03 11:26:49;;;;;;;2.08;0.90;;;19.30;97.10;;;;;;5050931;28;20491;-80
2021/08/03 11:29:18;;;;;;;2.72;1.00;;;19.30;97.30;;;;;;5051562;28;20057;-79
2021/08/03 11:31:51;;;;;;;2.30;1.00;;;19.30;97.10;;;;;;5054589;28;20052;-78
2021/08/03 11:34:25;;;;;;;2.03;1.00;;;19.30;97.30;;;;;;5054356;28;20045;-78
2021/08/03 11:37:05;;;;;;;;;;;19.30;97.50;;;;;;5054558;28;20139;-77
2021/08/03 11:39:35;;;;;;;5.47;1.20;;;19.30;97.60;;;;;;5054306;28;20007;-79
2021/08/03 11:42:03;;;;;;;1.95;0.95;;;19.40;98.00;;;;;;5053947;28;20505;-79
2021/08/03 11:44:30;;;;;;;2.60;1.20;;;19.40;97.60;;;;;;5054102;28;20128;-77
2021/08/03 11:47:02;;;;;;;2.60;1.20;;;19.40;97.60;;;;;;5054280;28;20128;-79
2021/08/03 11:49:39;;;;;;;2.17;1.08;;;19.50;97.70;;;;;;5053576;28;20131;-78
2021/08/03 11:52:20;;;;;;;3.40;1.30;;;19.60;97.80;;;;;;5054779;28;20380;-79
2021/08/03 11:54:50;;;;;;;7.78;1.40;;;19.60;97.40;;;;;;5054641;28;20123;-79
2021/08/03 11:57:29;;;;;;;2.40;1.00;;;19.50;97.30;;;;;;5054456;28;20491;-80
2021/08/03 12:00:19;;;;;;;3.20;1.20;;;19.50;97.50;;;;;;5054095;28;20128;-78
2021/08/03 12:02:50;;;;;;;2.47;1.10;;;19.50;97.70;;;;;;5050073;28;20127;-78
2021/08/03 12:05:28;;;;;;;2.60;1.00;;;19.50;97.90;;;;;;5053983;28;20131;-79
2021/08/03 12:08:07;;;;;;;3.92;1.40;;;19.40;98.00;;;;;;5054079;28;20470;-78
2021/08/03 12:10:37;;;;;;;2.38;1.00;;;19.40;97.70;;;;;;5053698;28;20087;-79
2021/08/03 12:13:05;;;;;;;3.15;1.52;;;19.30;97.80;;;;;;5054880;28;20372;-79
2021/08/03 12:15:46;;;;;;;3.05;1.27;;;19.30;98.10;;;;;;5055382;28;20469;-78
2021/08/03 12:18:13;;;;;;;3.00;1.10;;;19.30;98.00;;;;;;5053702;28;20048;-79
2021/08/03 12:20:52;;;;;;;2.70;1.10;;;19.20;98.30;;;;;;5053387;28;20228;-80
2021/08/03 12:23:23;;;;;;;3.03;1.38;;;19.20;98.50;;;;;;5053413;28;20088;-81
2021/08/03 12:25:57;;;;;;;2.67;1.23;;;19.20;98.40;;;;;;5053333;28;20128;-79
2021/08/03 12:28:34;;;;;;;2.80;1.20;;;19.10;98.20;;;;;;5053132;28;20576;-79
2021/08/03 12:31:30;;;;;;;2.65;1.30;;;19.10;98.30;;;;;;5053092;28;20112;-79
2021/08/03 12:34:11;;;;;;;2.95;1.30;;;19.10;98.20;;;;;;5053226;28;20490;-79
2021/08/03 12:36:47;;;;;;;3.58;1.23;;;19.10;98.30;;;;;;5053330;28;20060;-78
2021/08/03 12:39:22;;;;;;;2.60;1.10;;;19.00;98.20;;;;;;5053269;28;20171;-80
2021/08/03 12:42:18;;;;;;;2.42;1.13;;;19.10;98.10;;;;;;5053102;28;20045;-79
2021/08/03 12:44:47;;;;;;;2.72;1.23;;;19.00;97.80;;;;;;5052840;28;20106;-79
2021/08/03 12:47:16;;;;;;;2.83;1.30;;;19.00;97.80;;;;;;5053381;28;20053;-81
2021/08/03 12:49:46;;;;;;;2.50;1.15;;;19.10;98.00;;;;;;5053127;28;20140;-81
2021/08/03 12:52:16;;;;;;;2.90;1.25;;;19.10;98.10;;;;;;5052742;28;20052;-79
2021/08/03 12:54:57;;;;;;;3.20;1.23;;;19.20;98.10;;;;;;5055217;28;20053;-78
2021/08/03 12:57:44;;;;;;;2.25;1.08;;;19.30;98.00;;;;;;5054498;28;20049;-80
2021/08/03 13:00:31;;;;;;;2.30;1.05;;;19.40;97.30;;;;;;5052711;28;20045;-80
2021/08/03 13:03:00;;;;;;;2.83;1.30;;;19.60;97.10;;;;;;5053038;28;20084;-80
2021/08/03 13:05:29;;;;;;;4.15;1.10;;;19.70;96.60;;;;;;5052484;28;20128;-81
2021/08/03 13:07:58;;;;;;;2.22;1.10;;;19.80;96.10;;;;;;5053080;28;20135;-79